createdAt,value
2023-03-16T00:01:03.517Z,92.49
2023-03-16T00:03:30.374Z,91.67
2023-03-16T00:05:56.963Z,89.22
2023-03-16T00:08:24.091Z,91.25
2023-03-16T00:10:54.047Z,88.45
2023-03-16T00:13:23.802Z,88.79
2023-03-16T00:15:54.613Z,88.66
2023-03-16T00:18:21.670Z,89.42
2023-03-16T00:20:52.217Z,89.84
2023-03-16T00:23:19.219Z,89.92
2023-03-16T00:25:45.724Z,88.93
2023-03-16T00:28:13.960Z,89.17
2023-03-16T00:30:40.455Z,89.09
2023-03-16T00:33:07.047Z,86.98
2023-03-16T00:35:34.869Z,86.47
2023-03-16T00:38:01.416Z,87.55
2023-03-16T00:40:28.029Z,86.28
2023-03-16T00:42:55.081Z,84.83
2023-03-16T00:45:21.578Z,85.56
2023-03-16T00:47:48.053Z,84.39
2023-03-16T00:50:14.544Z,84.63
2023-03-16T00:52:42.150Z,83.52
2023-03-16T00:55:08.898Z,83.72
2023-03-16T00:57:35.443Z,83.18
2023-03-16T01:00:12.612Z,84.53
2023-03-16T01:02:39.120Z,83.23
2023-03-16T01:05:06.044Z,83.85
2023-03-16T01:07:32.528Z,86.01
2023-03-16T01:09:59.038Z,86.45
2023-03-16T01:12:25.512Z,86.15
2023-03-16T01:14:52.319Z,85.81
2023-03-16T01:17:18.865Z,85.84
2023-03-16T01:19:45.729Z,86.91
2023-03-16T01:22:12.224Z,89.73
2023-03-16T01:24:38.840Z,88.65
2023-03-16T01:27:05.434Z,88.49
2023-03-16T01:29:32.102Z,88.96
2023-03-16T01:31:58.747Z,91.79
2023-03-16T01:34:25.271Z,92.76
2023-03-16T01:36:51.733Z,93.74
2023-03-16T01:39:18.209Z,94.39
2023-03-16T01:41:45.159Z,94.79
2023-03-16T01:44:24.335Z,94.71
2023-03-16T01:46:50.901Z,94.31
2023-03-16T01:49:20.563Z,94.55
2023-03-16T01:51:54.380Z,94.79
2023-03-16T01:54:21.716Z,94.75
2023-03-16T01:56:56.190Z,93.71
2023-03-16T01:59:24.981Z,92.85
2023-03-16T02:01:51.863Z,93.15
2023-03-16T02:04:36.984Z,93.41
2023-03-16T02:07:04.681Z,93.56
2023-03-16T02:09:32.010Z,94.29
2023-03-16T02:11:58.480Z,95.46
2023-03-16T02:14:24.957Z,98.07
2023-03-16T02:16:52.003Z,98.94
2023-03-16T02:19:42.199Z,100.00
2023-03-16T02:22:08.533Z,100.00
2023-03-16T02:24:36.426Z,100.00
2023-03-16T02:27:11.174Z,100.00
2023-03-16T02:30:01.267Z,100.00
2023-03-16T02:32:27.871Z,100.00
2023-03-16T02:34:55.440Z,100.00
2023-03-16T02:37:21.907Z,100.00
2023-03-16T02:39:48.380Z,100.00
2023-03-16T02:42:19.509Z,100.00
2023-03-16T02:44:52.411Z,100.00
2023-03-16T02:47:45.435Z,100.00
2023-03-16T02:50:12.396Z,100.00
2023-03-16T02:52:39.095Z,100.00
2023-03-16T02:55:06.272Z,100.00
2023-03-16T02:57:32.806Z,100.00
2023-03-16T02:59:59.512Z,100.00
2023-03-16T03:02:26.034Z,100.00
2023-03-16T03:04:54.459Z,100.00
2023-03-16T03:07:21.025Z,100.00
2023-03-16T03:09:47.489Z,100.00
2023-03-16T03:12:14.056Z,100.00
2023-03-16T03:14:40.556Z,100.00
2023-03-16T03:17:07.480Z,100.00
2023-03-16T03:19:34.547Z,100.00
2023-03-16T03:22:04.166Z,100.00
2023-03-16T03:24:31.737Z,100.00
2023-03-16T03:27:00.627Z,100.00
2023-03-16T03:29:34.510Z,100.00
2023-03-16T03:32:04.372Z,100.00
2023-03-16T03:34:31.611Z,100.00
2023-03-16T03:36:58.208Z,100.00
2023-03-16T03:39:24.703Z,100.00
2023-03-16T03:41:54.593Z,100.00
2023-03-16T03:44:24.005Z,100.00
2023-03-16T03:46:51.571Z,100.00
2023-03-16T03:49:18.461Z,100.00
2023-03-16T03:51:44.932Z,100.00
2023-03-16T03:54:13.081Z,100.00
2023-03-16T03:56:39.569Z,100.00
2023-03-16T03:59:06.315Z,100.00
2023-03-16T04:01:32.792Z,100.00
2023-03-16T04:03:59.307Z,100.00
2023-03-16T04:06:25.807Z,100.00
2023-03-16T04:08:54.516Z,100.00
2023-03-16T04:11:21.302Z,100.00
2023-03-16T04:13:47.813Z,100.00
2023-03-16T04:16:16.240Z,100.00
2023-03-16T04:18:42.788Z,100.00
2023-03-16T04:21:14.030Z,100.00
2023-03-16T04:23:40.484Z,100.00
2023-03-16T04:26:06.953Z,100.00
2023-03-16T04:28:33.428Z,100.00
2023-03-16T04:31:05.367Z,100.00
2023-03-16T04:33:32.401Z,100.00
2023-03-16T04:35:59.303Z,100.00
2023-03-16T04:38:25.869Z,100.00
2023-03-16T04:40:52.324Z,100.00
2023-03-16T04:43:18.801Z,100.00
2023-03-16T04:45:45.276Z,100.00
2023-03-16T04:48:12.024Z,100.00
2023-03-16T04:50:38.520Z,100.00
2023-03-16T04:53:04.987Z,100.00
2023-03-16T04:55:31.584Z,100.00
2023-03-16T04:57:58.136Z,100.00
2023-03-16T05:00:24.657Z,100.00
2023-03-16T05:02:51.850Z,100.00
2023-03-16T05:05:18.495Z,100.00
2023-03-16T05:07:45.050Z,100.00
2023-03-16T05:10:12.433Z,100.00
2023-03-16T05:12:38.975Z,100.00
2023-03-16T05:15:06.146Z,100.00
2023-03-16T05:17:32.731Z,100.00
2023-03-16T05:19:59.209Z,100.00
2023-03-16T05:22:25.905Z,100.00
2023-03-16T05:24:52.394Z,100.00
2023-03-16T05:27:18.860Z,100.00
2023-03-16T05:29:46.626Z,100.00
2023-03-16T05:32:13.444Z,100.00
2023-03-16T05:34:39.979Z,100.00
2023-03-16T05:37:06.437Z,100.00
2023-03-16T05:39:34.568Z,100.00
2023-03-16T05:42:01.056Z,100.00
2023-03-16T05:44:27.640Z,100.00
2023-03-16T05:46:54.208Z,100.00
2023-03-16T05:49:20.765Z,100.00
2023-03-16T05:51:47.235Z,100.00
2023-03-16T05:54:13.923Z,100.00
2023-03-16T05:56:40.422Z,100.00
2023-03-16T05:59:06.884Z,100.00
2023-03-16T06:01:34.137Z,100.00
2023-03-16T06:04:01.563Z,100.00
2023-03-16T06:06:28.026Z,100.00
2023-03-16T06:08:54.533Z,100.00
2023-03-16T06:11:21.079Z,100.00
2023-03-16T06:13:47.547Z,100.00
2023-03-16T06:16:14.561Z,100.00
2023-03-16T06:18:41.266Z,100.00
2023-03-16T06:21:07.827Z,100.00
2023-03-16T06:23:34.299Z,100.00
2023-03-16T06:26:01.105Z,100.00
2023-03-16T06:28:27.557Z,99.92
2023-03-16T06:30:55.182Z,99.52
2023-03-16T06:33:21.824Z,99.26
2023-03-16T06:35:48.380Z,98.71
2023-03-16T06:38:14.916Z,98.14
2023-03-16T06:40:41.460Z,97.75
2023-03-16T06:43:08.077Z,98.21
2023-03-16T06:45:34.560Z,96.66
2023-03-16T06:48:01.042Z,95.96
2023-03-16T06:50:28.281Z,95.66
2023-03-16T06:52:54.852Z,96.36
2023-03-16T06:55:21.308Z,97.41
2023-03-16T06:57:47.781Z,98.26
2023-03-16T07:00:15.512Z,99.09
2023-03-16T07:02:43.592Z,99.19
2023-03-16T07:05:13.073Z,100.00
2023-03-16T07:07:42.530Z,100.00
2023-03-16T07:10:13.282Z,99.94
2023-03-16T07:12:40.007Z,100.00
2023-03-16T07:15:06.722Z,100.00
2023-03-16T07:17:33.232Z,97.89
2023-03-16T07:19:59.729Z,95.29
2023-03-16T07:22:26.370Z,95.49
2023-03-16T07:24:57.175Z,96.41
2023-03-16T07:27:24.472Z,94.42
2023-03-16T07:29:52.012Z,92.06
2023-03-16T07:32:19.527Z,92.40
2023-03-16T07:34:45.988Z,90.68
2023-03-16T07:37:12.484Z,89.39
2023-03-16T07:39:38.948Z,88.96
2023-03-16T07:42:05.480Z,88.99
2023-03-16T07:44:31.939Z,86.60
2023-03-16T07:46:58.417Z,86.46
2023-03-16T07:49:24.886Z,86.63
2023-03-16T07:51:51.493Z,84.28
2023-03-16T07:54:17.943Z,84.74
2023-03-16T07:56:49.279Z,84.16
2023-03-16T07:59:16.207Z,84.63
2023-03-16T08:01:43.160Z,81.99
2023-03-16T08:04:12.212Z,82.54
2023-03-16T08:06:38.807Z,81.18
2023-03-16T08:09:06.418Z,81.23
2023-03-16T08:11:32.909Z,81.93
2023-03-16T08:13:59.376Z,80.29
2023-03-16T08:16:26.673Z,81.44
2023-03-16T08:18:56.033Z,80.77
2023-03-16T08:21:22.593Z,80.19
2023-03-16T08:23:50.416Z,80.22
2023-03-16T08:26:19.691Z,80.88
2023-03-16T08:28:46.623Z,80.05
2023-03-16T08:31:14.378Z,80.64
2023-03-16T08:33:42.044Z,80.71
2023-03-16T08:36:09.713Z,80.33
2023-03-16T08:38:36.250Z,80.33
2023-03-16T08:41:02.719Z,81.35
2023-03-16T08:43:29.189Z,79.13
2023-03-16T08:45:56.335Z,80.09
2023-03-16T08:48:23.096Z,78.40
2023-03-16T08:50:49.560Z,78.35
2023-03-16T08:53:16.084Z,78.03
2023-03-16T08:55:42.622Z,78.93
2023-03-16T08:58:09.503Z,77.76
2023-03-16T09:00:36.442Z,79.75
2023-03-16T09:03:02.934Z,79.57
2023-03-16T09:05:29.429Z,77.70
2023-03-16T09:07:55.909Z,76.29
2023-03-16T09:10:23.083Z,77.64
2023-03-16T09:12:50.226Z,76.22
2023-03-16T09:15:16.715Z,77.59
2023-03-16T09:17:44.993Z,75.19
2023-03-16T09:20:22.263Z,75.51
2023-03-16T09:22:52.290Z,75.69
2023-03-16T09:25:19.892Z,75.63
2023-03-16T09:27:46.737Z,74.69
2023-03-16T09:30:13.482Z,73.90
2023-03-16T09:32:40.356Z,74.68
2023-03-16T09:35:07.176Z,74.05
2023-03-16T09:37:44.625Z,72.91
2023-03-16T09:40:22.108Z,73.69
2023-03-16T09:43:12.757Z,72.14
2023-03-16T09:45:49.113Z,73.54
2023-03-16T09:48:16.991Z,72.70
2023-03-16T09:50:49.208Z,73.29
2023-03-16T09:53:25.572Z,71.96
2023-03-16T09:56:06.241Z,71.91
2023-03-16T09:58:32.957Z,71.58
2023-03-16T10:01:07.624Z,70.23
2023-03-16T10:04:00.524Z,72.14
2023-03-16T10:06:27.080Z,71.52
2023-03-16T10:09:07.276Z,71.66
2023-03-16T10:11:38.191Z,69.85
2023-03-16T10:14:23.960Z,71.96
2023-03-16T10:16:52.640Z,71.86
2023-03-16T10:19:51.263Z,73.03
2023-03-16T10:22:26.547Z,71.42
2023-03-16T10:24:57.994Z,72.27
2023-03-16T10:27:28.693Z,70.80
2023-03-16T10:29:58.461Z,70.90
2023-03-16T10:32:29.274Z,71.21
2023-03-16T10:35:02.350Z,70.08
2023-03-16T10:37:29.896Z,69.47
2023-03-16T10:39:57.224Z,71.07
2023-03-16T10:42:24.035Z,72.18
2023-03-16T10:44:57.044Z,69.70
2023-03-16T10:47:24.810Z,70.46
2023-03-16T10:49:51.733Z,69.61
2023-03-16T10:52:22.197Z,68.91
2023-03-16T10:55:15.995Z,68.09
2023-03-16T10:57:43.544Z,67.03
2023-03-16T11:00:13.301Z,68.26
2023-03-16T11:02:40.726Z,68.86
2023-03-16T11:05:15.944Z,68.17
2023-03-16T11:07:58.162Z,67.74
2023-03-16T11:10:40.520Z,67.28
2023-03-16T11:13:19.837Z,66.54
2023-03-16T11:15:55.823Z,68.20
2023-03-16T11:18:30.094Z,65.10
2023-03-16T11:20:58.151Z,63.99
2023-03-16T11:23:33.060Z,65.59
2023-03-16T11:26:02.892Z,64.84
2023-03-16T11:28:35.541Z,64.96
2023-03-16T11:31:17.060Z,64.00
2023-03-16T11:33:43.565Z,62.73
2023-03-16T11:36:55.920Z,62.52
2023-03-16T11:39:33.864Z,61.93
2023-03-16T11:42:12.568Z,60.26
2023-03-16T11:44:59.442Z,60.46
2023-03-16T11:48:00.281Z,60.90
2023-03-16T11:50:45.120Z,60.78
2023-03-16T11:53:20.605Z,59.62
2023-03-16T11:56:18.016Z,58.35
2023-03-16T11:59:07.911Z,58.19
2023-03-16T12:02:08.638Z,60.91
2023-03-16T12:04:56.608Z,59.73
2023-03-16T12:07:35.376Z,58.65
2023-03-16T12:10:02.426Z,60.12
2023-03-16T12:12:50.981Z,59.39
2023-03-16T12:15:25.207Z,59.45
2023-03-16T12:17:57.502Z,58.99
2023-03-16T12:20:29.452Z,58.65
2023-03-16T12:22:59.578Z,58.33
2023-03-16T12:25:29.685Z,58.31
2023-03-16T12:27:58.311Z,59.60
2023-03-16T12:30:50.490Z,59.63
2023-03-16T12:33:35.834Z,58.36
2023-03-16T12:36:21.147Z,58.40
2023-03-16T12:38:56.905Z,57.92
2023-03-16T12:41:46.220Z,59.34
2023-03-16T12:44:23.883Z,58.13
2023-03-16T12:47:13.089Z,58.67
2023-03-16T12:49:40.106Z,59.20
2023-03-16T12:52:10.089Z,57.56
2023-03-16T12:54:38.852Z,57.04
2023-03-16T12:57:08.865Z,57.29
2023-03-16T12:59:46.571Z,56.56
2023-03-16T13:02:19.343Z,56.28
2023-03-16T13:04:49.096Z,57.97
2023-03-16T13:07:22.672Z,57.78
2023-03-16T13:10:03.635Z,55.41
2023-03-16T13:12:32.854Z,55.76
2023-03-16T13:14:59.364Z,55.78
2023-03-16T13:17:28.684Z,56.75
2023-03-16T13:20:47.715Z,55.46
2023-03-16T13:23:17.078Z,55.71
2023-03-16T13:26:03.253Z,55.23
2023-03-16T13:28:32.706Z,55.10
2023-03-16T13:30:59.230Z,54.49
2023-03-16T13:33:27.725Z,55.23
2023-03-16T13:35:56.344Z,54.39
2023-03-16T13:38:27.646Z,54.48
2023-03-16T13:41:04.470Z,55.23
2023-03-16T13:43:32.803Z,54.47
2023-03-16T13:45:59.624Z,55.56
2023-03-16T13:48:26.157Z,55.78
2023-03-16T13:50:53.994Z,56.23
2023-03-16T13:53:31.398Z,56.28
2023-03-16T13:55:58.743Z,55.65
2023-03-16T13:58:35.503Z,55.52
2023-03-16T14:01:03.504Z,55.93
2023-03-16T14:03:35.920Z,54.70
2023-03-16T14:06:03.542Z,55.81
2023-03-16T14:08:30.027Z,54.72
2023-03-16T14:10:59.881Z,56.41
2023-03-16T14:13:32.922Z,56.28
2023-03-16T14:16:01.457Z,56.50
2023-03-16T14:18:36.916Z,56.22
2023-03-16T14:21:27.501Z,57.95
2023-03-16T14:23:56.889Z,56.12
2023-03-16T14:26:23.499Z,57.17
2023-03-16T14:29:08.192Z,56.71
2023-03-16T14:31:36.486Z,56.57
2023-03-16T14:34:04.899Z,58.20
2023-03-16T14:36:36.116Z,56.54
2023-03-16T14:39:20.201Z,56.61
2023-03-16T14:41:51.110Z,56.98
2023-03-16T14:44:22.614Z,57.75
2023-03-16T14:46:49.117Z,58.50
2023-03-16T14:49:20.263Z,57.78
2023-03-16T14:51:47.034Z,57.93
2023-03-16T14:54:17.501Z,58.23
2023-03-16T14:56:48.308Z,58.01
2023-03-16T14:59:14.762Z,57.16
2023-03-16T15:01:41.282Z,56.94
2023-03-16T15:04:07.819Z,56.76
2023-03-16T15:06:34.954Z,56.48
2023-03-16T15:09:01.670Z,57.84
2023-03-16T15:11:28.858Z,57.34
2023-03-16T15:14:04.117Z,57.74
2023-03-16T15:16:30.938Z,57.74
2023-03-16T15:18:57.498Z,57.88
2023-03-16T15:21:29.462Z,58.00
2023-03-16T15:23:58.650Z,58.76
2023-03-16T15:26:28.455Z,58.32
2023-03-16T15:28:55.542Z,56.89
2023-03-16T15:31:22.373Z,57.00
2023-03-16T15:33:48.976Z,56.75
2023-03-16T15:36:17.130Z,57.16
2023-03-16T15:38:45.664Z,55.11
2023-03-16T15:41:12.146Z,54.70
2023-03-16T15:43:38.600Z,53.51
2023-03-16T15:46:05.241Z,54.36
2023-03-16T15:48:32.007Z,53.79
2023-03-16T15:51:04.235Z,52.04
2023-03-16T15:53:37.016Z,52.77
2023-03-16T15:56:05.913Z,53.66
2023-03-16T15:58:32.551Z,52.85
2023-03-16T16:00:59.770Z,52.36
2023-03-16T16:03:26.345Z,52.13
2023-03-16T16:05:53.060Z,53.25
2023-03-16T16:08:19.812Z,53.87
2023-03-16T16:10:46.709Z,54.69
2023-03-16T16:13:19.971Z,54.34
2023-03-16T16:15:47.020Z,52.84
2023-03-16T16:18:26.442Z,54.28
2023-03-16T16:20:52.969Z,54.70
2023-03-16T16:23:19.950Z,55.17
2023-03-16T16:25:46.668Z,53.67
2023-03-16T16:28:15.090Z,54.66
2023-03-16T16:30:41.837Z,54.42
2023-03-16T16:33:28.085Z,55.34
2023-03-16T16:35:55.611Z,55.08
2023-03-16T16:38:22.461Z,54.72
2023-03-16T16:40:49.080Z,56.10
2023-03-16T16:43:20.282Z,55.99
2023-03-16T16:45:47.328Z,55.65
2023-03-16T16:48:31.755Z,55.90
2023-03-16T16:50:59.669Z,56.27
2023-03-16T16:53:26.150Z,56.84
2023-03-16T16:55:53.216Z,57.34
2023-03-16T16:58:24.632Z,57.21
2023-03-16T17:00:55.859Z,56.84
2023-03-16T17:03:27.406Z,57.49
2023-03-16T17:05:56.929Z,57.33
2023-03-16T17:08:24.502Z,58.10
2023-03-16T17:10:51.968Z,59.01
2023-03-16T17:13:26.511Z,58.74
2023-03-16T17:15:54.484Z,58.73
2023-03-16T17:18:21.989Z,58.67
2023-03-16T17:20:49.517Z,58.65
2023-03-16T17:23:24.890Z,59.65
2023-03-16T17:25:52.088Z,60.24
2023-03-16T17:28:18.586Z,60.82
2023-03-16T17:30:45.690Z,60.82
2023-03-16T17:33:13.257Z,61.93
2023-03-16T17:35:41.224Z,62.06
2023-03-16T17:38:18.721Z,62.85
2023-03-16T17:40:46.135Z,63.04
2023-03-16T17:43:17.260Z,62.90
2023-03-16T17:45:44.710Z,62.73
2023-03-16T17:48:13.231Z,63.25
2023-03-16T17:50:40.547Z,63.04
2023-03-16T17:53:07.239Z,64.10
2023-03-16T17:55:33.929Z,64.19
2023-03-16T17:58:00.498Z,64.80
2023-03-16T18:00:29.969Z,65.46
2023-03-16T18:02:59.105Z,65.70
2023-03-16T18:05:33.136Z,66.11
2023-03-16T18:08:17.576Z,66.26
2023-03-16T18:10:44.374Z,67.20
2023-03-16T18:13:29.803Z,67.36
2023-03-16T18:15:57.223Z,67.36
2023-03-16T18:18:27.957Z,68.28
2023-03-16T18:20:56.397Z,68.20
2023-03-16T18:23:25.488Z,68.33
2023-03-16T18:25:52.880Z,68.20
2023-03-16T18:28:20.498Z,68.77
2023-03-16T18:30:48.096Z,69.03
2023-03-16T18:33:23.576Z,69.44
2023-03-16T18:35:51.609Z,69.41
2023-03-16T18:38:24.534Z,69.67
2023-03-16T18:40:51.046Z,69.56
2023-03-16T18:43:18.119Z,70.13
2023-03-16T18:45:45.869Z,70.18
2023-03-16T18:48:37.683Z,69.82
2023-03-16T18:51:04.403Z,70.23
2023-03-16T18:53:30.861Z,70.56
2023-03-16T18:55:57.734Z,70.65
2023-03-16T18:58:24.837Z,70.82
2023-03-16T19:00:57.083Z,71.26
2023-03-16T19:03:33.322Z,71.32
2023-03-16T19:06:00.425Z,71.48
2023-03-16T19:08:27.337Z,71.47
2023-03-16T19:10:59.000Z,71.78
2023-03-16T19:13:26.115Z,71.62
2023-03-16T19:15:57.947Z,71.71
2023-03-16T19:18:26.033Z,72.09
2023-03-16T19:20:52.510Z,72.26
2023-03-16T19:23:25.617Z,72.24
2023-03-16T19:25:52.303Z,72.05
2023-03-16T19:28:29.556Z,72.66
2023-03-16T19:30:56.352Z,72.30
2023-03-16T19:33:25.925Z,72.76
2023-03-16T19:35:53.972Z,72.85
2023-03-16T19:38:21.553Z,72.33
2023-03-16T19:40:49.467Z,72.52
2023-03-16T19:43:19.532Z,72.66
2023-03-16T19:45:46.823Z,72.42
2023-03-16T19:48:15.672Z,73.28
2023-03-16T19:50:42.226Z,73.00
2023-03-16T19:53:14.681Z,73.23
2023-03-16T19:55:41.152Z,73.41
2023-03-16T19:58:15.208Z,73.15
2023-03-16T20:00:41.861Z,73.84
2023-03-16T20:03:09.521Z,73.96
2023-03-16T20:05:38.533Z,74.04
2023-03-16T20:08:13.334Z,74.52
2023-03-16T20:10:39.805Z,74.40
2023-03-16T20:13:07.548Z,74.75
2023-03-16T20:15:34.396Z,75.06
2023-03-16T20:18:00.892Z,74.67
2023-03-16T20:20:29.002Z,74.82
2023-03-16T20:22:57.526Z,75.48
2023-03-16T20:25:24.609Z,75.19
2023-03-16T20:27:54.717Z,75.91
2023-03-16T20:30:21.531Z,75.27
2023-03-16T20:32:48.250Z,75.57
2023-03-16T20:35:28.620Z,75.89
2023-03-16T20:37:55.450Z,75.56
2023-03-16T20:40:22.358Z,75.73
2023-03-16T20:42:49.088Z,75.72
2023-03-16T20:45:20.912Z,75.77
2023-03-16T20:47:47.767Z,75.64
2023-03-16T20:50:25.095Z,75.26
2023-03-16T20:52:52.007Z,75.36
2023-03-16T20:55:20.139Z,75.79
2023-03-16T20:57:47.606Z,75.53
2023-03-16T21:00:35.315Z,75.35
2023-03-16T21:03:04.933Z,75.88
2023-03-16T21:05:31.697Z,75.93
2023-03-16T21:07:58.390Z,75.72
2023-03-16T21:10:25.275Z,75.72
2023-03-16T21:12:53.627Z,75.79
2023-03-16T21:15:27.494Z,75.35
2023-03-16T21:17:55.986Z,75.48
2023-03-16T21:20:23.223Z,75.56
2023-03-16T21:22:49.773Z,75.91
2023-03-16T21:25:20.860Z,75.79
2023-03-16T21:27:47.367Z,75.63
2023-03-16T21:30:22.273Z,75.60
2023-03-16T21:32:51.700Z,75.25
2023-03-16T21:35:18.339Z,76.15
2023-03-16T21:37:45.279Z,75.37
2023-03-16T21:40:19.277Z,75.44
2023-03-16T21:42:46.652Z,75.61
2023-03-16T21:45:13.390Z,75.23
2023-03-16T21:47:39.953Z,75.38
2023-03-16T21:50:20.925Z,75.54
2023-03-16T21:52:47.791Z,75.29
2023-03-16T21:55:29.813Z,75.09
2023-03-16T21:57:57.077Z,74.97
2023-03-16T22:00:28.902Z,75.17
2023-03-16T22:02:57.622Z,75.23
2023-03-16T22:05:30.118Z,75.20
2023-03-16T22:07:57.991Z,75.54
2023-03-16T22:10:27.649Z,75.36
2023-03-16T22:12:55.268Z,75.05
2023-03-16T22:15:24.980Z,75.45
2023-03-16T22:17:54.722Z,74.69
2023-03-16T22:20:27.002Z,75.14
2023-03-16T22:22:57.539Z,75.55
2023-03-16T22:25:25.098Z,75.81
2023-03-16T22:27:52.179Z,76.04
2023-03-16T22:30:22.279Z,75.14
2023-03-16T22:32:54.816Z,75.57
2023-03-16T22:35:39.632Z,75.77
2023-03-16T22:38:06.663Z,75.29
2023-03-16T22:40:37.369Z,75.60
2023-03-16T22:43:05.589Z,75.76
2023-03-16T22:45:33.455Z,75.62
2023-03-16T22:48:02.370Z,75.63
2023-03-16T22:50:31.300Z,75.17
2023-03-16T22:52:59.600Z,75.40
2023-03-16T22:55:32.113Z,75.33
2023-03-16T22:58:21.869Z,75.69
2023-03-16T23:00:48.399Z,75.94
2023-03-16T23:03:19.819Z,75.74
2023-03-16T23:05:46.558Z,75.65
2023-03-16T23:08:14.879Z,76.07
2023-03-16T23:10:41.395Z,76.13
2023-03-16T23:13:16.059Z,76.40
2023-03-16T23:15:47.302Z,76.21
2023-03-16T23:18:18.769Z,76.30
2023-03-16T23:20:45.379Z,76.39
2023-03-16T23:23:11.926Z,76.30
2023-03-16T23:25:38.445Z,76.36
2023-03-16T23:28:05.148Z,76.30
2023-03-16T23:30:32.051Z,76.54
2023-03-16T23:32:58.853Z,76.54
2023-03-16T23:35:29.925Z,76.93
2023-03-16T23:37:56.487Z,76.88
2023-03-16T23:40:24.207Z,76.77
2023-03-16T23:42:50.835Z,77.02
2023-03-16T23:45:32.099Z,77.20
2023-03-16T23:47:59.701Z,77.65
2023-03-16T23:50:28.616Z,77.19
2023-03-16T23:52:55.974Z,77.40
2023-03-16T23:55:22.821Z,77.06
2023-03-16T23:57:49.362Z,77.04
